Time;durP1;ratioP1;P1;durP2;ratioP2;P2;SDS_P1;SDS_P2;PMS_P1;PMS_P2;Temp;Humidity;BMP_temperature;BMP_pressure;BME280_temperature;BME280_humidity;BME280_pressure;Samples;Min_cycle;Max_cycle;Signal;HPM_P1;HPM_P2
2021/05/01 00:01:23;;;;;;;19.83;15.27;;;11.90;68.70;;;;;;4945636;29;20055;-65
2021/05/01 00:03:48;;;;;;;20.02;15.52;;;11.90;68.70;;;;;;4945730;29;20028;-65
2021/05/01 00:06:14;;;;;;;21.63;16.88;;;12.00;68.60;;;;;;4947390;29;20070;-65
2021/05/01 00:08:39;;;;;;;20.60;15.57;;;12.00;68.50;;;;;;4945984;29;20039;-65
2021/05/01 00:11:06;;;;;;;21.92;16.65;;;12.00;68.60;;;;;;4945197;29;20055;-65
2021/05/01 00:13:32;;;;;;;20.20;15.95;;;11.90;68.90;;;;;;4928768;29;20275;-65
2021/05/01 00:15:58;;;;;;;22.98;17.02;;;11.80;69.40;;;;;;4945278;29;20087;-65
2021/05/01 00:18:24;;;;;;;22.17;16.48;;;11.90;69.40;;;;;;4928687;29;20102;-65
2021/05/01 00:20:49;;;;;;;20.70;16.17;;;11.80;69.30;;;;;;4947201;29;20047;-65
2021/05/01 00:23:15;;;;;;;20.95;16.23;;;11.90;69.20;;;;;;4945442;29;20042;-65
2021/05/01 00:25:41;;;;;;;22.90;17.55;;;11.90;68.90;;;;;;4945155;29;20040;-65
2021/05/01 00:28:06;;;;;;;21.67;16.73;;;11.80;69.20;;;;;;4945146;29;20099;-65
2021/05/01 00:30:32;;;;;;;21.23;16.48;;;11.90;69.20;;;;;;4945124;29;20024;-65
2021/05/01 00:32:58;;;;;;;21.15;16.23;;;11.90;69.00;;;;;;4947347;29;20036;-64
2021/05/01 00:35:23;;;;;;;21.40;16.70;;;11.90;69.00;;;;;;4945490;29;20035;-64
2021/05/01 00:37:49;;;;;;;19.33;15.60;;;11.90;68.70;;;;;;4944975;29;20275;-64
2021/05/01 00:40:15;;;;;;;20.73;17.02;;;12.00;68.80;;;;;;4945162;29;20032;-64
2021/05/01 00:42:40;;;;;;;20.63;16.17;;;11.90;68.80;;;;;;4944754;29;20032;-65
2021/05/01 00:45:06;;;;;;;22.98;17.35;;;12.10;68.80;;;;;;4946814;29;20378;-64
2021/05/01 00:47:32;;;;;;;21.45;16.58;;;12.10;68.50;;;;;;4943914;29;20331;-65
2021/05/01 00:49:58;;;;;;;20.15;16.00;;;11.90;68.80;;;;;;4945248;29;20067;-65
2021/05/01 00:52:23;;;;;;;22.63;17.38;;;12.00;68.90;;;;;;4945174;29;20078;-64
2021/05/01 00:54:49;;;;;;;21.40;16.50;;;12.10;68.70;;;;;;4944890;29;20051;-64
2021/05/01 00:57:14;;;;;;;21.42;16.42;;;12.00;68.80;;;;;;4929812;29;20369;-64
2021/05/01 00:59:40;;;;;;;23.17;17.60;;;12.00;68.60;;;;;;4928396;29;20124;-65
2021/05/01 01:02:06;;;;;;;22.52;17.15;;;12.00;68.50;;;;;;4945311;29;20040;-65
2021/05/01 01:04:31;;;;;;;23.38;17.58;;;11.90;68.90;;;;;;4944723;29;20279;-65
2021/05/01 01:06:57;;;;;;;23.45;17.63;;;11.90;68.90;;;;;;4945037;29;20035;-64
2021/05/01 01:09:22;;;;;;;21.40;16.73;;;12.00;68.90;;;;;;4928135;29;20046;-64
2021/05/01 01:11:48;;;;;;;22.25;16.73;;;12.00;68.70;;;;;;4929534;29;20028;-64
2021/05/01 01:14:14;;;;;;;24.10;17.95;;;12.10;68.40;;;;;;4928415;29;20063;-65
2021/05/01 01:16:43;;;;;;;23.92;18.20;;;12.00;68.50;;;;;;4944476;29;20036;-65
2021/05/01 01:19:09;;;;;;;25.20;18.63;;;11.90;68.40;;;;;;4928365;29;20039;-64
2021/05/01 01:21:47;;;;;;;25.20;18.63;;;11.80;68.60;;;;;;4944719;29;20038;-65
2021/05/01 01:24:13;;;;;;;22.30;17.63;;;11.90;68.50;;;;;;4933131;29;20078;-64
2021/05/01 01:26:39;;;;;;;23.08;17.63;;;11.90;68.30;;;;;;4948766;29;20068;-64
2021/05/01 01:29:05;;;;;;;23.40;17.40;;;12.00;68.10;;;;;;4948737;29;20048;-65
2021/05/01 01:31:30;;;;;;;23.67;17.23;;;11.90;68.10;;;;;;4948407;29;20043;-65
2021/05/01 01:33:56;;;;;;;22.20;16.98;;;11.90;67.90;;;;;;4931665;29;20090;-65
2021/05/01 01:36:22;;;;;;;23.83;18.00;;;11.90;68.30;;;;;;4948063;29;20374;-65
2021/05/01 01:38:47;;;;;;;24.38;17.33;;;11.90;68.20;;;;;;4950083;29;20035;-64
2021/05/01 01:41:13;;;;;;;23.42;17.80;;;11.90;67.90;;;;;;4948496;29;20038;-64
2021/05/01 01:43:38;;;;;;;23.83;17.63;;;11.90;68.10;;;;;;4947835;29;20259;-65
2021/05/01 01:46:04;;;;;;;23.58;17.80;;;11.90;68.30;;;;;;4931187;29;20107;-65
2021/05/01 01:48:30;;;;;;;22.98;17.33;;;11.80;68.50;;;;;;4931108;29;20039;-65
2021/05/01 01:50:56;;;;;;;23.58;17.75;;;11.90;68.50;;;;;;4949605;29;20346;-65
2021/05/01 01:53:23;;;;;;;25.23;17.70;;;11.90;68.40;;;;;;4948112;29;20065;-65
2021/05/01 01:55:49;;;;;;;24.45;18.20;;;11.90;68.90;;;;;;4947837;29;20032;-65
2021/05/01 01:58:14;;;;;;;26.33;20.02;;;11.90;68.90;;;;;;4947868;29;20051;-64
2021/05/01 02:00:40;;;;;;;23.70;18.20;;;11.80;68.80;;;;;;4947075;29;20051;-65
2021/05/01 02:03:06;;;;;;;23.52;17.65;;;11.90;68.70;;;;;;4949451;29;20091;-65
2021/05/01 02:05:31;;;;;;;25.35;19.55;;;11.80;68.80;;;;;;4948340;29;20042;-65
2021/05/01 02:07:57;;;;;;;23.95;17.85;;;11.90;68.80;;;;;;4947651;29;20087;-65
2021/05/01 02:10:22;;;;;;;23.77;18.50;;;11.90;68.70;;;;;;4947637;29;20349;-64
2021/05/01 02:12:48;;;;;;;26.08;19.52;;;11.90;68.90;;;;;;4947548;29;20032;-65
2021/05/01 02:15:21;;;;;;;26.60;19.35;;;11.90;68.90;;;;;;4949414;29;20023;-65
2021/05/01 02:17:51;;;;;;;26.70;19.50;;;11.80;69.20;;;;;;4931520;29;20097;-65
2021/05/01 02:20:19;;;;;;;26.50;19.08;;;11.70;69.40;;;;;;4930682;29;20038;-64
2021/05/01 02:22:45;;;;;;;25.33;18.85;;;11.80;69.60;;;;;;4947359;29;20099;-65
2021/05/01 02:25:11;;;;;;;24.88;18.73;;;11.90;69.30;;;;;;4946992;29;20032;-65
2021/05/01 02:27:36;;;;;;;24.00;17.83;;;11.90;69.20;;;;;;4930325;29;20331;-65
2021/05/01 02:30:05;;;;;;;25.38;18.23;;;11.90;69.10;;;;;;4949102;29;20028;-65
2021/05/01 02:32:31;;;;;;;26.98;19.30;;;11.90;68.70;;;;;;4947233;29;20361;-65
2021/05/01 02:34:56;;;;;;;22.75;17.67;;;11.90;68.60;;;;;;4946452;29;20035;-65
2021/05/01 02:37:22;;;;;;;24.27;18.23;;;11.90;68.40;;;;;;4946916;29;20032;-65
2021/05/01 02:39:47;;;;;;;26.50;19.33;;;11.80;68.90;;;;;;4946984;29;20325;-65
2021/05/01 02:42:13;;;;;;;24.33;18.30;;;11.80;69.20;;;;;;4948887;29;20028;-64
2021/05/01 02:44:39;;;;;;;24.73;18.95;;;11.90;69.10;;;;;;4946963;29;20043;-64
2021/05/01 02:47:04;;;;;;;27.50;19.80;;;11.90;68.90;;;;;;4946978;29;20122;-65
2021/05/01 02:49:30;;;;;;;24.65;17.98;;;11.90;68.90;;;;;;4947095;29;20063;-65
2021/05/01 02:51:55;;;;;;;24.88;18.73;;;11.90;69.00;;;;;;4929906;29;20046;-65
2021/05/01 02:54:21;;;;;;;27.45;18.67;;;12.00;68.90;;;;;;4946648;29;20032;-65
2021/05/01 02:56:46;;;;;;;26.70;19.45;;;12.00;68.80;;;;;;4948383;29;20088;-65
2021/05/01 02:59:12;;;;;;;29.63;21.70;;;11.90;68.70;;;;;;4929499;29;20055;-65
2021/05/01 03:01:37;;;;;;;27.88;20.00;;;11.80;68.80;;;;;;4946388;29;20246;-64
2021/05/01 03:04:03;;;;;;;25.92;18.27;;;11.80;69.10;;;;;;4946902;29;20227;-64
2021/05/01 03:06:29;;;;;;;27.80;19.90;;;11.80;68.90;;;;;;4946346;29;20098;-64
2021/05/01 03:08:55;;;;;;;26.92;20.20;;;11.90;68.90;;;;;;4948540;29;20035;-64
2021/05/01 03:11:20;;;;;;;29.02;19.27;;;11.90;69.00;;;;;;4929856;29;20040;-64
2021/05/01 03:13:46;;;;;;;27.20;19.85;;;11.90;69.10;;;;;;4946431;29;20031;-64
2021/05/01 03:16:11;;;;;;;28.63;20.55;;;11.80;69.50;;;;;;4946581;29;20035;-64
2021/05/01 03:18:37;;;;;;;26.25;18.40;;;11.80;69.60;;;;;;4929385;29;20079;-64
2021/05/01 03:21:03;;;;;;;29.15;21.30;;;11.80;69.70;;;;;;4948206;29;20071;-64
2021/05/01 03:23:29;;;;;;;30.20;21.13;;;11.60;70.10;;;;;;4946373;29;20043;-64
2021/05/01 03:25:54;;;;;;;29.73;20.10;;;11.60;70.20;;;;;;4946131;29;20067;-64
2021/05/01 03:28:21;;;;;;;27.65;19.88;;;11.50;70.20;;;;;;4946501;29;20042;-64
2021/05/01 03:30:47;;;;;;;27.92;20.20;;;11.50;70.40;;;;;;4946346;29;20035;-64
2021/05/01 03:33:13;;;;;;;28.98;20.58;;;11.60;70.20;;;;;;4947963;29;20035;-65
2021/05/01 03:35:39;;;;;;;27.42;19.73;;;11.60;70.40;;;;;;4946077;29;20072;-64
2021/05/01 03:38:04;;;;;;;28.63;19.88;;;11.70;70.00;;;;;;4945848;29;20103;-64
2021/05/01 03:40:30;;;;;;;28.25;19.65;;;11.80;69.80;;;;;;4945948;29;20047;-65
2021/05/01 03:42:56;;;;;;;25.67;18.95;;;11.80;69.70;;;;;;4945780;29;20035;-64
2021/05/01 03:45:21;;;;;;;27.60;19.75;;;11.90;69.50;;;;;;4928980;29;20042;-65
2021/05/01 03:47:47;;;;;;;32.10;21.60;;;11.80;69.70;;;;;;4947438;29;20039;-64
2021/05/01 03:50:13;;;;;;;30.38;21.77;;;11.80;69.60;;;;;;4945609;29;20046;-65
2021/05/01 03:52:38;;;;;;;33.70;22.00;;;11.70;69.60;;;;;;4929162;29;20043;-64
2021/05/01 03:55:05;;;;;;;28.73;20.60;;;11.60;69.60;;;;;;4929129;29;20035;-64
2021/05/01 03:57:30;;;;;;;29.75;21.98;;;11.70;69.70;;;;;;4945520;29;20072;-64
2021/05/01 03:59:56;;;;;;;29.40;20.85;;;11.60;70.10;;;;;;4947533;29;20069;-64
2021/05/01 04:02:22;;;;;;;27.65;20.48;;;11.60;70.10;;;;;;4946073;29;20044;-64
2021/05/01 04:04:47;;;;;;;29.98;20.77;;;11.60;70.10;;;;;;4945813;29;20075;-64
2021/05/01 04:07:13;;;;;;;27.58;19.80;;;11.60;70.20;;;;;;4945777;29;20087;-64
2021/05/01 04:09:39;;;;;;;28.63;21.33;;;11.70;70.30;;;;;;4945585;29;20036;-64
2021/05/01 04:12:05;;;;;;;28.77;20.85;;;11.70;70.20;;;;;;4930792;29;20086;-64
2021/05/01 04:14:30;;;;;;;30.70;21.95;;;11.70;70.20;;;;;;4946033;29;20043;-65
2021/05/01 04:16:56;;;;;;;31.90;23.58;;;11.80;70.10;;;;;;4928980;29;20043;-64
2021/05/01 04:19:22;;;;;;;34.88;23.88;;;11.80;70.10;;;;;;4945346;29;20051;-64
2021/05/01 04:21:48;;;;;;;31.10;22.35;;;11.70;70.20;;;;;;4928243;29;20219;-65
2021/05/01 04:24:13;;;;;;;32.50;22.98;;;11.70;70.00;;;;;;4946896;29;20083;-65
2021/05/01 04:26:39;;;;;;;32.75;22.90;;;11.80;70.00;;;;;;4945064;29;20091;-64
2021/05/01 04:29:05;;;;;;;35.70;24.75;;;11.70;69.80;;;;;;4945505;29;20036;-65
2021/05/01 04:31:31;;;;;;;35.22;24.00;;;11.80;69.90;;;;;;4945223;29;20035;-64
2021/05/01 04:33:56;;;;;;;37.17;24.85;;;11.80;70.10;;;;;;4945371;29;20040;-65
2021/05/01 04:36:22;;;;;;;38.30;25.67;;;11.80;70.00;;;;;;4944990;29;20059;-65
2021/05/01 04:38:47;;;;;;;38.03;25.30;;;11.80;70.10;;;;;;4947031;29;20031;-64
2021/05/01 04:41:13;;;;;;;38.63;26.67;;;11.80;70.20;;;;;;4945281;29;20265;-64
2021/05/01 04:43:41;;;;;;;37.38;26.77;;;11.80;70.10;;;;;;4928156;29;20043;-64
2021/05/01 04:46:06;;;;;;;42.15;26.38;;;11.80;70.30;;;;;;4944782;29;20099;-64
2021/05/01 04:48:32;;;;;;;40.92;27.55;;;11.80;70.20;;;;;;4944412;29;20075;-64
2021/05/01 04:50:58;;;;;;;38.80;27.15;;;11.80;69.90;;;;;;4946856;29;20310;-64
2021/05/01 04:53:23;;;;;;;37.20;25.80;;;11.80;69.90;;;;;;4945156;29;20389;-65
2021/05/01 04:55:49;;;;;;;36.33;26.42;;;11.70;69.80;;;;;;4944160;29;20334;-64
2021/05/01 04:58:15;;;;;;;40.45;28.38;;;11.60;69.80;;;;;;4946722;29;20079;-65
2021/05/01 05:00:41;;;;;;;40.92;27.25;;;11.50;69.90;;;;;;4916096;29;20032;-64
2021/05/01 05:03:06;;;;;;;38.55;27.50;;;11.60;70.00;;;;;;4933594;29;20350;-64
2021/05/01 05:05:32;;;;;;;42.22;28.77;;;11.60;70.40;;;;;;4949223;29;20358;-64
2021/05/01 05:07:58;;;;;;;42.80;28.73;;;11.30;71.10;;;;;;4949084;29;20044;-64
2021/05/01 05:10:24;;;;;;;39.55;27.17;;;11.40;70.70;;;;;;4932066;29;20031;-64
2021/05/01 05:12:49;;;;;;;40.90;27.35;;;11.50;70.50;;;;;;4948677;29;20098;-64
2021/05/01 05:15:15;;;;;;;41.38;27.48;;;11.40;70.60;;;;;;4933345;29;20036;-64
2021/05/01 05:17:41;;;;;;;40.50;28.02;;;11.40;70.60;;;;;;4930616;29;20038;-64
2021/05/01 05:20:07;;;;;;;41.20;27.92;;;11.40;70.60;;;;;;4948632;29;20035;-64
2021/05/01 05:22:32;;;;;;;39.88;27.30;;;11.40;70.80;;;;;;4931212;29;20035;-64
2021/05/01 05:24:58;;;;;;;40.08;27.77;;;11.50;70.60;;;;;;4947297;29;20038;-64
2021/05/01 05:27:24;;;;;;;40.97;27.55;;;11.40;70.60;;;;;;4931249;29;20036;-65
2021/05/01 05:29:50;;;;;;;43.30;28.17;;;11.40;70.60;;;;;;4950547;29;20031;-64
2021/05/01 05:32:17;;;;;;;40.38;27.55;;;11.40;70.60;;;;;;4948430;29;20039;-65
2021/05/01 05:34:43;;;;;;;41.95;27.55;;;11.40;70.70;;;;;;4948492;29;20035;-64
2021/05/01 05:37:08;;;;;;;42.95;28.52;;;11.40;70.60;;;;;;4931296;29;20080;-65
2021/05/01 05:39:34;;;;;;;41.95;27.20;;;11.40;70.80;;;;;;4931053;29;20043;-66
2021/05/01 05:42:00;;;;;;;40.13;27.30;;;11.50;70.60;;;;;;4950365;29;20032;-66
2021/05/01 05:44:25;;;;;;;40.47;27.30;;;11.40;70.90;;;;;;4931663;29;20094;-64
2021/05/01 05:46:51;;;;;;;42.67;28.20;;;11.40;70.90;;;;;;4948055;29;20043;-66
2021/05/01 05:49:16;;;;;;;40.55;26.55;;;11.50;71.10;;;;;;4948303;29;20091;-66
2021/05/01 05:51:42;;;;;;;41.45;26.67;;;11.60;70.90;;;;;;4948004;29;20043;-67
2021/05/01 05:54:07;;;;;;;38.45;26.48;;;11.80;70.50;;;;;;4949786;29;20047;-65
2021/05/01 05:56:36;;;;;;;37.58;25.98;;;11.60;70.50;;;;;;4914910;29;20051;-65
2021/05/01 05:59:02;;;;;;;42.10;26.52;;;11.70;70.10;;;;;;4931125;29;20111;-65
2021/05/01 06:01:29;;;;;;;40.70;27.50;;;11.80;70.60;;;;;;4947967;29;20046;-65
2021/05/01 06:03:55;;;;;;;42.90;27.27;;;11.70;70.40;;;;;;4931041;29;20036;-65
2021/05/01 06:06:27;;;;;;;41.50;26.75;;;11.80;70.70;;;;;;4947900;29;20124;-65
2021/05/01 06:08:54;;;;;;;37.95;26.58;;;11.80;71.00;;;;;;4916145;29;20024;-64
2021/05/01 06:11:19;;;;;;;39.40;26.83;;;11.90;70.70;;;;;;4947390;29;20142;-66
2021/05/01 06:13:48;;;;;;;38.72;25.67;;;11.90;70.90;;;;;;4915020;29;20038;-64
2021/05/01 06:16:13;;;;;;;35.53;24.75;;;12.00;70.50;;;;;;4947494;29;20050;-65
2021/05/01 06:18:40;;;;;;;37.63;25.48;;;12.00;70.10;;;;;;4947417;29;20103;-64
2021/05/01 06:21:12;;;;;;;37.10;24.50;;;12.10;70.00;;;;;;4916541;29;20348;-65
2021/05/01 06:23:39;;;;;;;36.58;25.90;;;12.10;70.00;;;;;;4930928;29;20035;-65
2021/05/01 06:26:05;;;;;;;37.78;26.75;;;12.10;70.20;;;;;;4947622;29;20040;-66
2021/05/01 06:28:31;;;;;;;35.15;24.67;;;12.10;70.30;;;;;;4930271;29;20395;-65
2021/05/01 06:31:01;;;;;;;38.75;25.48;;;12.20;70.00;;;;;;4930359;29;20139;-64
2021/05/01 06:33:27;;;;;;;36.30;23.90;;;12.20;70.20;;;;;;4930241;29;20041;-64
2021/05/01 06:35:52;;;;;;;37.53;25.92;;;12.20;69.90;;;;;;4948770;29;20323;-64
2021/05/01 06:38:18;;;;;;;37.53;25.67;;;12.10;69.70;;;;;;4930448;29;20350;-64
2021/05/01 06:40:47;;;;;;;34.85;24.95;;;12.10;69.80;;;;;;4947314;29;20050;-64
2021/05/01 06:43:27;;;;;;;36.70;26.17;;;12.10;70.00;;;;;;4946888;29;20051;-64
2021/05/01 06:45:52;;;;;;;37.42;25.70;;;12.00;69.90;;;;;;4931622;29;20039;-64
2021/05/01 06:48:23;;;;;;;36.55;24.63;;;12.10;70.20;;;;;;4947201;29;20046;-65
2021/05/01 06:50:48;;;;;;;35.40;24.03;;;12.20;70.10;;;;;;4931803;29;20023;-65
2021/05/01 06:53:17;;;;;;;36.10;22.92;;;12.30;69.80;;;;;;4947289;29;20222;-64
2021/05/01 06:55:42;;;;;;;34.95;23.98;;;12.20;69.50;;;;;;4929992;29;20035;-64
2021/05/01 06:58:08;;;;;;;35.22;24.42;;;12.20;69.40;;;;;;4929727;29;20104;-64
2021/05/01 07:00:34;;;;;;;38.28;25.42;;;12.30;69.70;;;;;;4929564;29;20309;-64
2021/05/01 07:03:07;;;;;;;32.47;22.77;;;12.40;69.60;;;;;;4931669;29;20086;-64
2021/05/01 07:05:33;;;;;;;37.72;24.80;;;12.60;69.50;;;;;;4947130;29;20266;-63
2021/05/01 07:07:58;;;;;;;35.08;23.55;;;12.60;68.90;;;;;;4947141;29;20063;-66
2021/05/01 07:10:25;;;;;;;34.88;24.65;;;12.70;69.20;;;;;;4946492;29;20382;-64
2021/05/01 07:12:50;;;;;;;34.55;23.33;;;12.70;68.80;;;;;;4929202;29;20040;-65
2021/05/01 07:15:17;;;;;;;34.22;23.10;;;12.60;68.40;;;;;;4946700;29;20078;-65
2021/05/01 07:17:43;;;;;;;35.67;22.63;;;12.70;68.50;;;;;;4948265;29;20039;-65
2021/05/01 07:20:10;;;;;;;33.45;23.00;;;12.80;68.50;;;;;;4929567;29;20051;-64
2021/05/01 07:22:36;;;;;;;33.15;23.58;;;12.80;68.50;;;;;;4928760;29;20227;-64
2021/05/01 07:25:03;;;;;;;31.27;21.83;;;12.90;68.00;;;;;;4946335;29;20036;-64
2021/05/01 07:27:35;;;;;;;32.75;21.58;;;12.90;67.20;;;;;;4946371;29;20100;-64
2021/05/01 07:30:02;;;;;;;29.13;20.58;;;12.90;67.20;;;;;;4931968;29;20032;-65
2021/05/01 07:32:30;;;;;;;32.22;20.75;;;12.90;67.70;;;;;;4929860;29;20202;-64
2021/05/01 07:34:57;;;;;;;27.80;19.63;;;13.10;67.70;;;;;;4946036;29;20090;-64
2021/05/01 07:37:23;;;;;;;28.15;19.45;;;13.30;67.50;;;;;;4946584;29;20091;-65
2021/05/01 07:39:51;;;;;;;27.52;17.88;;;13.40;67.00;;;;;;4929277;29;20031;-65
2021/05/01 07:42:16;;;;;;;23.38;17.00;;;13.50;66.60;;;;;;4945964;29;20024;-67
2021/05/01 07:44:42;;;;;;;26.52;18.15;;;13.60;65.50;;;;;;4930954;29;20040;-65
2021/05/01 07:47:09;;;;;;;26.10;17.10;;;13.60;65.50;;;;;;4928881;29;20036;-66
2021/05/01 07:49:34;;;;;;;25.23;17.33;;;13.80;65.70;;;;;;4929082;29;20107;-66
2021/05/01 07:52:00;;;;;;;26.25;18.88;;;13.90;65.50;;;;;;4912805;29;20373;-66
2021/05/01 07:54:26;;;;;;;28.70;18.45;;;14.10;65.60;;;;;;4945572;29;20428;-66
2021/05/01 07:56:51;;;;;;;25.77;18.45;;;14.10;65.70;;;;;;4914704;29;20252;-64
2021/05/01 07:59:17;;;;;;;22.25;16.17;;;14.20;65.30;;;;;;4945942;29;20079;-66
2021/05/01 08:01:43;;;;;;;24.25;17.30;;;14.30;64.70;;;;;;4945255;29;20071;-64
2021/05/01 08:04:11;;;;;;;24.90;17.15;;;14.30;64.40;;;;;;4945802;29;20349;-65
2021/05/01 08:06:37;;;;;;;30.63;15.88;;;14.40;64.10;;;;;;4928438;29;20235;-65
2021/05/01 08:09:04;;;;;;;24.30;15.23;;;14.60;63.50;;;;;;4947131;29;20095;-64
2021/05/01 08:11:29;;;;;;;23.42;15.32;;;14.80;63.40;;;;;;4913411;29;20353;-66
2021/05/01 08:13:55;;;;;;;21.33;15.57;;;14.70;62.30;;;;;;4945451;29;20055;-65
2021/05/01 08:16:20;;;;;;;22.73;15.38;;;15.00;62.20;;;;;;4928863;29;20035;-64
2021/05/01 08:18:46;;;;;;;19.88;14.32;;;15.20;62.70;;;;;;4945340;29;20027;-67
2021/05/01 08:21:12;;;;;;;19.02;13.05;;;15.20;60.80;;;;;;4914254;29;20322;-65
2021/05/01 08:23:37;;;;;;;20.52;14.40;;;15.20;60.90;;;;;;4945687;29;20215;-64
2021/05/01 08:26:04;;;;;;;18.38;13.15;;;15.30;61.20;;;;;;4945457;29;20394;-64
2021/05/01 08:28:30;;;;;;;20.60;12.88;;;15.30;60.80;;;;;;4943734;29;20047;-66
2021/05/01 08:30:55;;;;;;;16.73;12.07;;;15.30;60.70;;;;;;4928625;29;20051;-64
2021/05/01 08:33:21;;;;;;;17.25;12.38;;;15.20;59.90;;;;;;4944548;29;20211;-66
2021/05/01 08:35:47;;;;;;;17.48;11.95;;;15.10;60.00;;;;;;4946997;29;20318;-65
2021/05/01 08:38:12;;;;;;;15.93;11.05;;;15.10;60.80;;;;;;4912768;29;20118;-64
2021/05/01 08:40:38;;;;;;;17.30;12.10;;;15.20;61.00;;;;;;4944969;29;20031;-64
2021/05/01 08:43:03;;;;;;;16.52;12.20;;;15.20;60.10;;;;;;4944974;29;20304;-65
2021/05/01 08:45:31;;;;;;;17.58;11.90;;;15.10;60.40;;;;;;4944931;29;20051;-65
2021/05/01 08:47:57;;;;;;;20.92;13.80;;;15.20;60.30;;;;;;4947099;29;20035;-67
2021/05/01 08:50:26;;;;;;;20.08;13.73;;;15.10;60.70;;;;;;4912509;29;20047;-65
2021/05/01 08:52:55;;;;;;;21.60;15.00;;;15.20;60.50;;;;;;4945001;29;20084;-66
2021/05/01 08:55:24;;;;;;;23.35;15.30;;;15.30;61.20;;;;;;4944918;29;20043;-66
2021/05/01 08:57:50;;;;;;;21.25;14.80;;;15.30;61.10;;;;;;4944469;29;20099;-66
2021/05/01 09:00:16;;;;;;;18.77;13.75;;;15.20;60.70;;;;;;4946265;29;20263;-67
2021/05/01 09:02:42;;;;;;;19.67;14.30;;;15.20;61.00;;;;;;4945483;29;20047;-66
2021/05/01 09:05:12;;;;;;;21.08;13.05;;;15.30;60.80;;;;;;4945090;29;20038;-65
2021/05/01 09:07:38;;;;;;;17.48;12.85;;;15.20;60.70;;;;;;4927030;29;20219;-65
2021/05/01 09:10:05;;;;;;;18.58;13.30;;;15.20;60.90;;;;;;4944794;29;20231;-65
2021/05/01 09:12:45;;;;;;;20.58;14.15;;;15.10;61.50;;;;;;4944440;29;20059;-65
2021/05/01 09:15:24;;;;;;;20.57;14.47;;;15.10;61.10;;;;;;4946613;29;20125;-66
2021/05/01 09:18:04;;;;;;;20.50;14.48;;;15.10;61.00;;;;;;4929152;29;20111;-65
2021/05/01 09:20:29;;;;;;;20.80;14.35;;;15.00;61.30;;;;;;4945197;29;20195;-66
2021/05/01 09:23:08;;;;;;;22.92;14.38;;;15.20;61.70;;;;;;4944048;29;20040;-67
2021/05/01 09:25:49;;;;;;;18.65;14.07;;;15.20;61.70;;;;;;4928446;29;20040;-69
2021/05/01 09:28:15;;;;;;;20.65;14.50;;;15.20;61.20;;;;;;4944814;29;20036;-63
2021/05/01 09:30:42;;;;;;;21.35;13.95;;;15.20;61.30;;;;;;4944249;29;20043;-63
2021/05/01 09:33:17;;;;;;;20.45;13.73;;;15.30;61.70;;;;;;4946759;29;20047;-65
2021/05/01 09:35:44;;;;;;;19.30;14.35;;;15.30;61.20;;;;;;4945262;29;20039;-64
2021/05/01 09:38:10;;;;;;;20.40;13.82;;;15.20;61.10;;;;;;4928244;29;20068;-63
2021/05/01 09:40:36;;;;;;;22.50;14.82;;;15.20;61.40;;;;;;4927843;29;20103;-63
2021/05/01 09:43:08;;;;;;;21.98;14.23;;;15.10;61.60;;;;;;4911898;29;20109;-63
2021/05/01 09:45:34;;;;;;;20.55;14.38;;;15.10;61.40;;;;;;4947899;29;20055;-65
2021/05/01 09:47:59;;;;;;;19.95;14.32;;;15.00;61.80;;;;;;4950088;29;20337;-64
2021/05/01 09:50:26;;;;;;;19.95;14.40;;;15.00;61.90;;;;;;4915655;29;20047;-63
2021/05/01 09:53:02;;;;;;;21.00;15.23;;;15.10;62.10;;;;;;4931097;29;20102;-64
2021/05/01 09:55:44;;;;;;;21.80;14.75;;;15.00;61.80;;;;;;4948054;29;20042;-64
2021/05/01 09:58:21;;;;;;;22.08;15.40;;;15.00;62.00;;;;;;4914181;29;20107;-66
2021/05/01 10:00:48;;;;;;;20.92;14.77;;;14.90;61.90;;;;;;4948081;29;20331;-65
2021/05/01 10:03:24;;;;;;;22.63;14.60;;;14.90;61.90;;;;;;4932821;29;20031;-64
2021/05/01 10:05:51;;;;;;;24.27;14.48;;;14.90;61.80;;;;;;4948443;29;20059;-67
2021/05/01 10:08:18;;;;;;;24.13;15.18;;;14.90;62.30;;;;;;4931150;29;20349;-70
2021/05/01 10:10:45;;;;;;;22.95;16.52;;;15.00;62.40;;;;;;4915120;29;20255;-67
2021/05/01 10:13:11;;;;;;;23.95;16.33;;;15.00;62.10;;;;;;4899592;29;20078;-65
2021/05/01 10:15:37;;;;;;;22.35;15.25;;;15.00;62.00;;;;;;4930924;29;20040;-65
2021/05/01 10:18:10;;;;;;;22.02;15.85;;;15.10;62.20;;;;;;4949290;29;20050;-64
2021/05/01 10:20:45;;;;;;;19.83;15.02;;;15.10;62.80;;;;;;4931348;29;20311;-65
2021/05/01 10:23:12;;;;;;;21.38;14.00;;;15.10;62.50;;;;;;4947842;29;20035;-65
2021/05/01 10:25:37;;;;;;;21.50;15.38;;;15.20;62.10;;;;;;4947180;29;20042;-67
2021/05/01 10:28:06;;;;;;;21.75;15.60;;;15.10;62.20;;;;;;4930615;29;20040;-66
2021/05/01 10:36:19;;;;;;;23.58;14.38;;;15.00;61.70;;;;;;4947775;29;20315;-68
2021/05/01 10:38:45;;;;;;;26.48;16.20;;;14.90;62.20;;;;;;4917642;29;20040;-67
2021/05/01 10:41:16;;;;;;;39.40;23.55;;;14.90;62.40;;;;;;4929930;29;20034;-67
2021/05/01 10:43:51;;;;;;;30.60;18.38;;;14.80;62.60;;;;;;4947363;29;20035;-67
2021/05/01 10:46:25;;;;;;;32.38;20.77;;;14.80;62.60;;;;;;4930265;29;20106;-67
2021/05/01 10:48:56;;;;;;;39.70;23.05;;;14.80;62.60;;;;;;4946610;29;20039;-67
2021/05/01 10:51:22;;;;;;;30.40;18.88;;;14.90;62.60;;;;;;4946840;29;20091;-67
2021/05/01 10:54:07;;;;;;;23.08;16.30;;;14.90;62.40;;;;;;4948597;29;20059;-67
2021/05/01 10:56:33;;;;;;;22.88;15.82;;;14.90;62.50;;;;;;4945949;29;20098;-67
2021/05/01 10:59:05;;;;;;;21.42;15.30;;;14.90;62.80;;;;;;4929634;29;20055;-67
2021/05/01 11:01:47;;;;;;;24.45;16.90;;;14.90;62.50;;;;;;4929820;29;20040;-67
2021/05/01 11:04:19;;;;;;;22.63;15.55;;;14.90;62.60;;;;;;4946489;29;20062;-65
2021/05/01 11:06:51;;;;;;;22.70;15.95;;;15.00;62.40;;;;;;4946540;29;20078;-66
2021/05/01 11:09:39;;;;;;;22.60;15.55;;;15.00;62.30;;;;;;4929985;29;20035;-66
2021/05/01 11:12:07;;;;;;;23.38;14.95;;;14.90;62.50;;;;;;4948936;29;20240;-65
2021/05/01 11:14:33;;;;;;;22.40;14.95;;;14.80;62.50;;;;;;4930451;29;20103;-66
2021/05/01 11:17:09;;;;;;;20.77;14.57;;;14.90;62.50;;;;;;4914380;29;20293;-67
2021/05/01 11:19:35;;;;;;;22.52;15.40;;;15.00;62.10;;;;;;4946590;29;20039;-67
2021/05/01 11:22:00;;;;;;;20.00;14.18;;;14.90;62.70;;;;;;4929595;29;20045;-66
2021/05/01 11:24:26;;;;;;;20.85;15.02;;;15.00;62.30;;;;;;4913693;29;20333;-65
2021/05/01 11:26:52;;;;;;;20.95;15.13;;;15.00;61.90;;;;;;4948140;29;20035;-65
2021/05/01 11:29:18;;;;;;;19.48;14.20;;;15.00;62.10;;;;;;4946612;29;20083;-64
2021/05/01 11:31:45;;;;;;;18.60;13.25;;;15.10;62.30;;;;;;4929320;29;20251;-66
2021/05/01 11:34:12;;;;;;;21.17;15.18;;;15.10;62.00;;;;;;4913637;29;20342;-65
2021/05/01 11:36:50;;;;;;;24.38;13.93;;;15.00;62.20;;;;;;4897556;29;20035;-65
2021/05/01 11:39:16;;;;;;;20.15;13.80;;;15.10;62.10;;;;;;4947920;29;20030;-65
2021/05/01 11:41:43;;;;;;;19.95;14.60;;;15.10;61.90;;;;;;4946509;29;20056;-66
2021/05/01 11:44:10;;;;;;;19.55;14.18;;;15.10;61.80;;;;;;4929469;29;20066;-66
2021/05/01 11:46:39;;;;;;;19.75;14.20;;;15.10;61.90;;;;;;4945156;29;20111;-68
2021/05/01 11:49:08;;;;;;;18.88;13.82;;;15.10;61.70;;;;;;4928735;29;20031;-67
2021/05/01 11:51:45;;;;;;;17.65;12.68;;;15.20;61.90;;;;;;4913654;29;20038;-67
2021/05/01 11:54:27;;;;;;;18.00;12.82;;;15.10;61.80;;;;;;4947264;29;20032;-66
2021/05/01 11:57:16;;;;;;;19.13;13.05;;;15.20;62.00;;;;;;4929729;29;20074;-66
2021/05/01 11:59:43;;;;;;;17.95;13.15;;;15.20;61.60;;;;;;4929356;29;20048;-67
2021/05/01 12:02:09;;;;;;;17.58;13.15;;;15.30;61.70;;;;;;4929263;29;20226;-66
2021/05/01 12:04:57;;;;;;;16.27;12.18;;;15.20;61.40;;;;;;4945805;29;20102;-67
2021/05/01 12:08:00;;;;;;;16.92;12.40;;;15.10;61.10;;;;;;4945369;29;20039;-65
2021/05/01 12:10:26;;;;;;;18.67;12.70;;;15.10;60.80;;;;;;4945438;29;20039;-67
2021/05/01 12:13:05;;;;;;;17.63;11.27;;;14.90;61.00;;;;;;4945501;29;20055;-66
2021/05/01 12:15:35;;;;;;;17.63;11.98;;;15.00;61.00;;;;;;4929933;29;20115;-66
2021/05/01 12:18:02;;;;;;;17.55;12.57;;;15.00;61.20;;;;;;4914463;29;20040;-66
2021/05/01 12:20:29;;;;;;;18.15;12.52;;;14.90;61.10;;;;;;4928706;29;20039;-67
2021/05/01 12:23:00;;;;;;;18.08;12.18;;;14.80;61.00;;;;;;4928446;29;20039;-67
2021/05/01 12:25:29;;;;;;;19.90;11.98;;;14.80;61.40;;;;;;4929191;29;20039;-66
2021/05/01 12:27:55;;;;;;;17.45;13.40;;;14.90;61.30;;;;;;4945314;29;20211;-67
2021/05/01 12:30:36;;;;;;;19.05;11.50;;;14.80;61.50;;;;;;4945460;29;20082;-67
2021/05/01 12:33:20;;;;;;;;;;;14.90;61.60;;;;;;4947170;29;20028;-66
2021/05/01 12:35:46;;;;;;;15.40;11.30;;;14.80;62.10;;;;;;4945986;29;19982;-66